createdAt,value
2018-06-04T00:00:15.746Z,-48
2018-06-04T00:02:42.679Z,-48
2018-06-04T00:05:09.815Z,-48
2018-06-04T00:07:36.764Z,-48
2018-06-04T00:10:03.787Z,-48
2018-06-04T00:12:30.700Z,-48
2018-06-04T00:14:57.636Z,-48
2018-06-04T00:17:24.571Z,-48
2018-06-04T00:19:51.520Z,-48
2018-06-04T00:22:18.454Z,-48
2018-06-04T00:24:45.359Z,-48
2018-06-04T00:27:12.495Z,-48
2018-06-04T00:29:39.437Z,-48
2018-06-04T00:32:06.361Z,-48
2018-06-04T00:34:33.447Z,-48
2018-06-04T00:37:00.423Z,-48
2018-06-04T00:39:27.387Z,-48
2018-06-04T00:41:54.435Z,-48
2018-06-04T00:44:21.358Z,-48
2018-06-04T00:46:48.528Z,-48
2018-06-04T00:49:15.527Z,-48
2018-06-04T00:51:42.451Z,-48
2018-06-04T00:54:09.710Z,-48
2018-06-04T00:56:36.620Z,-48
2018-06-04T00:59:03.595Z,-48
2018-06-04T01:01:30.639Z,-48
2018-06-04T01:03:57.625Z,-48
2018-06-04T01:06:24.644Z,-48
2018-06-04T01:08:51.621Z,-48
2018-06-04T01:11:18.544Z,-48
2018-06-04T01:13:45.908Z,-48
2018-06-04T01:16:12.920Z,-48
2018-06-04T01:18:39.834Z,-48
2018-06-04T01:21:06.787Z,-48
2018-06-04T01:23:33.805Z,-48
2018-06-04T01:26:01.286Z,-48
2018-06-04T01:28:28.240Z,-50
2018-06-04T01:30:55.183Z,-49
2018-06-04T01:33:22.107Z,-48
2018-06-04T01:35:49.091Z,-48
2018-06-04T01:38:16.028Z,-48
2018-06-04T01:40:42.983Z,-50
2018-06-04T01:43:09.994Z,-49
2018-06-04T01:45:36.995Z,-48
2018-06-04T01:48:04.295Z,-48
2018-06-04T01:50:31.234Z,-49
2018-06-04T01:52:58.156Z,-51
2018-06-04T01:55:25.113Z,-49
2018-06-04T01:57:52.038Z,-48
2018-06-04T02:00:19.008Z,-48
2018-06-04T02:02:46.003Z,-48
2018-06-04T02:05:13.105Z,-48
2018-06-04T02:07:40.023Z,-49
2018-06-04T02:10:06.956Z,-48
2018-06-04T02:12:33.910Z,-48
2018-06-04T02:15:00.859Z,-48
2018-06-04T02:17:27.952Z,-48
2018-06-04T02:19:55.028Z,-48
2018-06-04T02:22:21.983Z,-48
2018-06-04T02:24:48.980Z,-48
2018-06-04T02:27:15.899Z,-48
2018-06-04T02:29:42.834Z,-48
2018-06-04T02:32:09.731Z,-48
2018-06-04T02:34:36.673Z,-48
2018-06-04T02:37:03.944Z,-48
2018-06-04T02:39:30.852Z,-48
2018-06-04T02:41:57.757Z,-48
2018-06-04T02:44:24.723Z,-48
2018-06-04T02:46:51.635Z,-48
2018-06-04T02:49:18.637Z,-48
2018-06-04T02:51:45.747Z,-48
2018-06-04T02:54:12.683Z,-48
2018-06-04T02:56:39.755Z,-48
2018-06-04T02:59:06.763Z,-48
2018-06-04T03:01:33.690Z,-48
2018-06-04T03:04:00.597Z,-48
2018-06-04T03:06:27.615Z,-48
2018-06-04T03:08:54.565Z,-48
2018-06-04T03:11:21.631Z,-48
2018-06-04T03:13:48.688Z,-48
2018-06-04T03:16:15.622Z,-48
2018-06-04T03:18:42.539Z,-48
2018-06-04T03:21:10.095Z,-48
2018-06-04T03:23:37.015Z,-48
2018-06-04T03:26:03.960Z,-48
2018-06-04T03:28:30.880Z,-48
2018-06-04T03:30:57.948Z,-48
2018-06-04T03:33:24.855Z,-48
2018-06-04T03:35:51.875Z,-48
2018-06-04T03:38:18.923Z,-48
2018-06-04T03:40:45.959Z,-48
2018-06-04T03:43:12.884Z,-48
2018-06-04T03:45:39.867Z,-48
2018-06-04T03:48:06.855Z,-48
2018-06-04T03:50:33.796Z,-48
2018-06-04T03:53:00.715Z,-48
2018-06-04T03:55:27.791Z,-48
2018-06-04T03:57:54.698Z,-48
2018-06-04T04:00:21.612Z,-48
2018-06-04T04:02:48.584Z,-48
2018-06-04T04:05:15.600Z,-48
2018-06-04T04:07:42.778Z,-48
2018-06-04T04:10:09.738Z,-48
2018-06-04T04:12:36.901Z,-49
2018-06-04T04:15:03.843Z,-48
2018-06-04T04:17:30.780Z,-49
2018-06-04T04:19:57.767Z,-49
2018-06-04T04:22:24.756Z,-48
2018-06-04T04:24:52.581Z,-48
2018-06-04T04:27:19.600Z,-48
2018-06-04T04:29:46.499Z,-49
2018-06-04T04:32:13.436Z,-48
2018-06-04T04:34:40.355Z,-48
2018-06-04T04:37:07.336Z,-48
2018-06-04T04:39:34.251Z,-48
2018-06-04T04:42:01.185Z,-49
2018-06-04T04:44:28.102Z,-48
2018-06-04T04:46:55.146Z,-48
2018-06-04T04:49:22.047Z,-48
2018-06-04T04:51:49.070Z,-48
2018-06-04T04:54:16.006Z,-48
2018-06-04T04:56:42.928Z,-48
2018-06-04T04:59:09.908Z,-48
2018-06-04T05:01:36.811Z,-48
2018-06-04T05:04:03.766Z,-48
2018-06-04T05:06:30.711Z,-49
2018-06-04T05:08:57.663Z,-49
2018-06-04T05:11:24.779Z,-48
2018-06-04T05:13:51.692Z,-49
2018-06-04T05:16:18.640Z,-48
2018-06-04T05:18:45.625Z,-48
2018-06-04T05:21:13.922Z,-48
2018-06-04T05:23:40.879Z,-49
2018-06-04T05:26:07.800Z,-48
2018-06-04T05:28:34.739Z,-49
2018-06-04T05:31:01.659Z,-51
2018-06-04T05:33:28.624Z,-51
2018-06-04T05:35:55.534Z,-46
2018-06-04T05:38:22.483Z,-46
2018-06-04T05:40:49.389Z,-47
2018-06-04T05:43:16.306Z,-46
2018-06-04T05:45:43.224Z,-46
2018-06-04T05:48:10.235Z,-46
2018-06-04T05:50:37.195Z,-51
2018-06-04T05:53:04.424Z,-52
2018-06-04T05:55:31.444Z,-48
2018-06-04T05:57:58.367Z,-48
2018-06-04T06:00:25.389Z,-48
2018-06-04T06:02:52.299Z,-50
2018-06-04T06:05:19.259Z,-51
2018-06-04T06:07:46.212Z,-50
2018-06-04T06:10:13.260Z,-50
2018-06-04T06:12:40.191Z,-49
2018-06-04T06:15:07.131Z,-48
2018-06-04T06:17:34.063Z,-49
2018-06-04T06:20:00.990Z,-49
2018-06-04T06:22:27.899Z,-49
2018-06-04T06:24:54.912Z,-49
2018-06-04T06:27:22.459Z,-46
2018-06-04T06:29:49.394Z,-50
2018-06-04T06:32:16.311Z,-49
2018-06-04T06:34:43.239Z,-46
2018-06-04T06:37:10.139Z,-46
2018-06-04T06:39:37.109Z,-49
2018-06-04T06:42:04.484Z,-49
2018-06-04T06:44:31.407Z,-49
2018-06-04T06:46:58.332Z,-49
2018-06-04T06:49:25.268Z,-46
2018-06-04T06:51:52.184Z,-46
2018-06-04T06:54:19.259Z,-46
2018-06-04T06:57:01.041Z,-49
2018-06-04T06:59:27.968Z,-49
2018-06-04T07:01:54.973Z,-49
2018-06-04T07:04:21.912Z,-49
2018-06-04T07:06:48.862Z,-46
2018-06-04T07:09:15.835Z,-49
2018-06-04T07:11:42.778Z,-46
2018-06-04T07:14:09.759Z,-46
2018-06-04T07:16:36.683Z,-46
2018-06-04T07:19:03.604Z,-46
2018-06-04T07:21:30.593Z,-47
2018-06-04T07:23:57.463Z,-46
2018-06-04T07:26:24.379Z,-46
2018-06-04T07:28:51.344Z,-46
2018-06-04T07:31:18.247Z,-46
2018-06-04T07:33:45.176Z,-46
2018-06-04T07:36:12.127Z,-46
2018-06-04T07:38:39.938Z,-49
2018-06-04T07:41:07.077Z,-47
2018-06-04T07:43:33.946Z,-47
2018-06-04T07:46:00.867Z,-49
2018-06-04T07:48:27.788Z,-50
2018-06-04T07:50:54.954Z,-50
2018-06-04T07:53:22.157Z,-45
2018-06-04T07:55:49.083Z,-49
2018-06-04T07:58:16.002Z,-49
2018-06-04T08:00:42.932Z,-48
2018-06-04T08:03:09.876Z,-45
2018-06-04T08:05:37.431Z,-49
2018-06-04T08:08:04.355Z,-49
2018-06-04T08:10:31.403Z,-47
2018-06-04T08:12:58.303Z,-48
2018-06-04T08:15:25.215Z,-48
2018-06-04T08:17:52.150Z,-45
2018-06-04T08:20:19.249Z,-48
2018-06-04T08:22:46.364Z,-45
2018-06-04T08:25:13.296Z,-45
2018-06-04T08:27:40.211Z,-46
2018-06-04T08:30:07.140Z,-45
2018-06-04T08:32:34.232Z,-46
2018-06-04T08:35:01.187Z,-46
2018-06-04T08:37:28.455Z,-46
2018-06-04T08:39:55.392Z,-47
2018-06-04T08:42:22.300Z,-46
2018-06-04T08:44:49.269Z,-45
2018-06-04T08:47:16.199Z,-45
2018-06-04T08:49:43.145Z,-46
2018-06-04T08:52:10.072Z,-45
2018-06-04T08:54:36.999Z,-49
2018-06-04T08:57:03.923Z,-48
2018-06-04T08:59:30.903Z,-47
2018-06-04T09:01:58.468Z,-46
2018-06-04T09:04:25.401Z,-46
2018-06-04T09:06:52.352Z,-45
2018-06-04T09:09:19.270Z,-46
2018-06-04T09:11:46.216Z,-46
2018-06-04T09:14:13.131Z,-45
2018-06-04T09:16:40.067Z,-46
2018-06-04T09:19:06.999Z,-46
2018-06-04T09:21:33.956Z,-45
2018-06-04T09:24:00.855Z,-45
2018-06-04T09:26:27.796Z,-45
2018-06-04T09:28:54.795Z,-45
2018-06-04T09:31:22.263Z,-45
2018-06-04T09:33:49.251Z,-45
2018-06-04T09:36:16.175Z,-45
2018-06-04T09:38:43.076Z,-45
2018-06-04T09:41:09.995Z,-45
2018-06-04T09:43:36.914Z,-45
2018-06-04T09:46:03.866Z,-45
2018-06-04T09:48:30.933Z,-46
2018-06-04T09:50:58.800Z,-45
2018-06-04T09:53:25.954Z,-45
2018-06-04T09:55:52.912Z,-48
2018-06-04T09:58:19.864Z,-48
2018-06-04T10:00:46.939Z,-48
2018-06-04T10:03:13.872Z,-45
2018-06-04T10:05:40.827Z,-45
2018-06-04T10:08:07.790Z,-45
2018-06-04T10:10:34.720Z,-46
2018-06-04T10:13:01.802Z,-48
2018-06-04T10:15:28.707Z,-48
2018-06-04T10:17:55.647Z,-48
2018-06-04T10:20:22.848Z,-48
2018-06-04T10:22:49.803Z,-46
2018-06-04T10:25:16.939Z,-46
2018-06-04T10:27:43.870Z,-46
2018-06-04T10:30:10.822Z,-45
2018-06-04T10:32:37.735Z,-46
2018-06-04T10:35:04.772Z,-46
2018-06-04T10:37:31.783Z,-46
2018-06-04T10:39:58.808Z,-46
2018-06-04T10:42:25.789Z,-46
2018-06-04T10:44:52.763Z,-46
2018-06-04T10:47:19.769Z,-46
2018-06-04T10:49:46.729Z,-46
2018-06-04T10:52:13.747Z,-46
2018-06-04T10:54:40.703Z,-46
2018-06-04T10:57:07.636Z,-46
2018-06-04T10:59:34.551Z,-46
2018-06-04T11:02:01.764Z,-47
2018-06-04T11:04:28.711Z,-46
2018-06-04T11:06:55.754Z,-46
2018-06-04T11:09:22.666Z,-47
2018-06-04T11:11:49.611Z,-46
2018-06-04T11:14:16.647Z,-46
2018-06-04T11:16:43.727Z,-46
2018-06-04T11:19:10.675Z,-46
2018-06-04T11:21:37.616Z,-46
2018-06-04T11:24:04.747Z,-46
2018-06-04T11:26:31.672Z,-49
2018-06-04T11:28:58.592Z,-46
2018-06-04T11:31:25.542Z,-47
2018-06-04T11:33:52.570Z,-46
2018-06-04T11:36:19.535Z,-47
2018-06-04T11:38:46.668Z,-46
2018-06-04T11:41:13.587Z,-46
2018-06-04T11:43:40.495Z,-47
2018-06-04T11:46:07.443Z,-46
2018-06-04T11:48:34.376Z,-48
2018-06-04T11:51:01.373Z,-47
2018-06-04T11:53:28.336Z,-47
2018-06-04T11:55:55.317Z,-48
2018-06-04T11:58:22.251Z,-47
2018-06-04T12:00:49.247Z,-48
2018-06-04T12:03:16.159Z,-48
2018-06-04T12:05:43.227Z,-48
2018-06-04T12:08:10.132Z,-47
2018-06-04T12:10:37.050Z,-47
2018-06-04T12:13:04.107Z,-48
2018-06-04T12:15:31.015Z,-48
2018-06-04T12:17:57.992Z,-48
2018-06-04T12:20:24.903Z,-48
2018-06-04T12:22:51.847Z,-47
2018-06-04T12:25:18.799Z,-47
2018-06-04T12:27:45.731Z,-48
2018-06-04T12:30:12.640Z,-47
2018-06-04T12:32:39.698Z,-47
2018-06-04T12:35:06.662Z,-49
2018-06-04T12:37:33.611Z,-48
2018-06-04T12:40:00.513Z,-47
2018-06-04T12:42:27.447Z,-48
2018-06-04T12:44:54.419Z,-47
2018-06-04T12:47:21.355Z,-48
2018-06-04T12:49:48.515Z,-46
2018-06-04T12:52:15.587Z,-45
2018-06-04T12:54:42.615Z,-45
2018-06-04T12:57:09.543Z,-46
2018-06-04T12:59:36.499Z,-46
2018-06-04T13:02:03.464Z,-46
2018-06-04T13:04:30.468Z,-47
2018-06-04T13:06:57.396Z,-47
2018-06-04T13:09:24.314Z,-47
2018-06-04T13:11:51.244Z,-46
2018-06-04T13:14:18.170Z,-46
2018-06-04T13:16:45.118Z,-46
2018-06-04T13:19:12.234Z,-47
2018-06-04T13:21:39.308Z,-49
2018-06-04T13:24:06.271Z,-49
2018-06-04T13:26:33.180Z,-49
2018-06-04T13:29:00.146Z,-49
2018-06-04T13:31:27.066Z,-49
2018-06-04T13:33:53.997Z,-47
2018-06-04T13:36:20.915Z,-47
2018-06-04T13:38:47.891Z,-47
2018-06-04T13:41:14.951Z,-47
2018-06-04T13:43:41.895Z,-47
2018-06-04T13:46:08.847Z,-48
2018-06-04T13:48:35.768Z,-48
2018-06-04T13:51:02.915Z,-49
2018-06-04T13:53:29.854Z,-47
2018-06-04T13:55:56.802Z,-47
2018-06-04T13:58:23.743Z,-47
2018-06-04T14:00:50.639Z,-48
2018-06-04T14:03:17.596Z,-47
2018-06-04T14:05:44.638Z,-47
2018-06-04T14:08:11.576Z,-48
2018-06-04T14:10:38.474Z,-48
2018-06-04T14:13:05.573Z,-48
2018-06-04T14:15:32.496Z,-48
2018-06-04T14:17:59.394Z,-48
2018-06-04T14:20:26.338Z,-47
2018-06-04T14:22:54.038Z,-47
2018-06-04T14:25:20.958Z,-48
2018-06-04T14:27:47.883Z,-49
2018-06-04T14:30:14.802Z,-49
2018-06-04T14:32:41.719Z,-48
2018-06-04T14:35:08.638Z,-47
2018-06-04T14:37:35.619Z,-48
2018-06-04T14:40:02.638Z,-48
2018-06-04T14:42:29.540Z,-48
2018-06-04T14:44:56.475Z,-48
2018-06-04T14:47:23.519Z,-48
2018-06-04T14:49:50.465Z,-49
2018-06-04T14:52:17.659Z,-49
2018-06-04T14:54:44.590Z,-48
2018-06-04T14:57:11.579Z,-48
2018-06-04T14:59:38.535Z,-48
2018-06-04T15:02:05.492Z,-47
2018-06-04T15:04:32.418Z,-48
2018-06-04T15:06:59.418Z,-47
2018-06-04T15:09:26.326Z,-48
2018-06-04T15:11:53.230Z,-48
2018-06-04T15:14:20.676Z,-47
2018-06-04T15:16:47.652Z,-47
2018-06-04T15:19:14.592Z,-46
2018-06-04T15:21:41.572Z,-47
2018-06-04T15:24:12.560Z,-47
2018-06-04T15:26:39.514Z,-48
2018-06-04T15:29:15.906Z,-48
2018-06-04T15:31:43.876Z,-50
2018-06-04T15:34:11.306Z,-48
2018-06-04T15:36:38.210Z,-49
2018-06-04T15:39:07.106Z,-46
2018-06-04T15:41:34.067Z,-45
2018-06-04T15:44:00.981Z,-48
2018-06-04T15:46:28.582Z,-47
2018-06-04T15:48:55.534Z,-48
2018-06-04T15:51:22.503Z,-48
2018-06-04T15:53:49.479Z,-48
2018-06-04T15:56:16.703Z,-48
2018-06-04T15:58:43.606Z,-49
2018-06-04T16:01:10.622Z,-48
2018-06-04T16:03:37.539Z,-45
2018-06-04T16:06:04.568Z,-48
2018-06-04T16:08:31.499Z,-48
2018-06-04T16:10:58.430Z,-45
2018-06-04T16:13:25.403Z,-46
2018-06-04T16:15:52.314Z,-45
2018-06-04T16:18:19.210Z,-45
2018-06-04T16:20:46.176Z,-46
2018-06-04T16:23:13.200Z,-46
2018-06-04T16:25:40.143Z,-46
2018-06-04T16:28:07.054Z,-46
2018-06-04T16:30:34.022Z,-46
2018-06-04T16:33:01.012Z,-46
2018-06-04T16:35:28.063Z,-46
2018-06-04T16:37:54.962Z,-46
2018-06-04T16:40:21.892Z,-46
2018-06-04T16:42:48.983Z,-46
2018-06-04T16:45:15.956Z,-46
2018-06-04T16:47:42.889Z,-47
2018-06-04T16:50:09.879Z,-47
2018-06-04T16:52:36.907Z,-48
2018-06-04T16:55:03.859Z,-49
2018-06-04T16:57:30.755Z,-46
2018-06-04T16:59:57.677Z,-47
2018-06-04T17:02:24.583Z,-46
2018-06-04T17:04:51.501Z,-47
2018-06-04T17:07:18.551Z,-46
2018-06-04T17:09:45.503Z,-47
2018-06-04T17:12:12.519Z,-46
2018-06-04T17:14:39.515Z,-46
2018-06-04T17:17:06.447Z,-46
2018-06-04T17:19:33.383Z,-46
2018-06-04T17:22:00.411Z,-46
2018-06-04T17:24:27.324Z,-47
2018-06-04T17:26:54.267Z,-47
2018-06-04T17:29:21.305Z,-46
2018-06-04T17:31:48.263Z,-46
2018-06-04T17:34:15.158Z,-46
2018-06-04T17:36:42.074Z,-47
2018-06-04T17:39:09.090Z,-47
2018-06-04T17:41:36.291Z,-47
2018-06-04T17:44:03.240Z,-47
2018-06-04T17:46:30.215Z,-46
2018-06-04T17:48:57.119Z,-47
2018-06-04T17:51:24.031Z,-47
2018-06-04T17:53:51.064Z,-48
2018-06-04T17:56:18.022Z,-47
2018-06-04T17:58:44.984Z,-47
2018-06-04T18:01:11.907Z,-48
2018-06-04T18:03:38.839Z,-46
2018-06-04T18:06:05.754Z,-46
2018-06-04T18:08:32.791Z,-46
2018-06-04T18:10:59.750Z,-46
2018-06-04T18:13:26.690Z,-46
2018-06-04T18:15:53.633Z,-47
2018-06-04T18:18:20.558Z,-46
2018-06-04T18:20:47.579Z,-46
2018-06-04T18:23:14.624Z,-47
2018-06-04T18:25:41.569Z,-47
2018-06-04T18:28:08.503Z,-46
2018-06-04T18:30:35.690Z,-46
2018-06-04T18:33:02.624Z,-46
2018-06-04T18:35:29.543Z,-46
2018-06-04T18:37:56.492Z,-46
2018-06-04T18:40:23.536Z,-46
2018-06-04T18:42:50.578Z,-47
2018-06-04T18:45:17.484Z,-46
2018-06-04T18:47:44.539Z,-48
2018-06-04T18:50:11.614Z,-46
2018-06-04T18:52:38.686Z,-46
2018-06-04T18:55:05.615Z,-46
2018-06-04T18:57:32.545Z,-47
2018-06-04T18:59:59.470Z,-46
2018-06-04T19:02:26.427Z,-46
2018-06-04T19:04:53.347Z,-48
2018-06-04T19:07:20.295Z,-46
2018-06-04T19:09:47.539Z,-46
2018-06-04T19:12:14.557Z,-47
2018-06-04T19:14:41.518Z,-46
2018-06-04T19:17:08.579Z,-46
2018-06-04T19:19:35.523Z,-46
2018-06-04T19:22:03.373Z,-46
2018-06-04T19:24:30.313Z,-46
2018-06-04T19:26:57.981Z,-47
2018-06-04T19:29:24.885Z,-48
2018-06-04T19:31:51.820Z,-46
2018-06-04T19:34:18.863Z,-46
2018-06-04T19:36:45.935Z,-46
2018-06-04T19:39:12.888Z,-46
2018-06-04T19:41:39.788Z,-47
2018-06-04T19:44:06.772Z,-46
2018-06-04T19:46:33.695Z,-46
2018-06-04T19:49:00.634Z,-47
2018-06-04T19:51:27.551Z,-46
2018-06-04T19:53:54.575Z,-46
2018-06-04T19:56:21.564Z,-46
2018-06-04T19:58:48.519Z,-46
2018-06-04T20:01:15.454Z,-46
2018-06-04T20:03:42.678Z,-47
2018-06-04T20:06:09.591Z,-47
2018-06-04T20:08:36.511Z,-46
2018-06-04T20:11:03.464Z,-46
2018-06-04T20:13:30.394Z,-46
2018-06-04T20:15:57.335Z,-46
2018-06-04T20:18:24.326Z,-46
2018-06-04T20:20:51.243Z,-46
2018-06-04T20:23:18.211Z,-46
2018-06-04T20:25:45.239Z,-46
2018-06-04T20:28:12.198Z,-46
2018-06-04T20:30:39.153Z,-46
2018-06-04T20:33:06.120Z,-46
2018-06-04T20:35:33.107Z,-46
2018-06-04T20:38:00.054Z,-46
2018-06-04T20:40:27.127Z,-46
2018-06-04T20:42:54.067Z,-46
2018-06-04T20:45:21.011Z,-46
2018-06-04T20:47:47.931Z,-46
2018-06-04T20:50:14.894Z,-48
2018-06-04T20:52:41.799Z,-47
2018-06-04T20:55:08.737Z,-46
2018-06-04T20:57:35.671Z,-47
2018-06-04T21:00:02.815Z,-46
2018-06-04T21:02:29.807Z,-46
2018-06-04T21:04:56.740Z,-46
2018-06-04T21:07:23.658Z,-47
2018-06-04T21:09:50.611Z,-46
2018-06-04T21:12:17.624Z,-47
2018-06-04T21:14:44.553Z,-48
2018-06-04T21:17:11.495Z,-46
2018-06-04T21:19:38.462Z,-46
2018-06-04T21:22:05.706Z,-47
2018-06-04T21:24:32.643Z,-46
2018-06-04T21:26:59.627Z,-46
2018-06-04T21:29:26.599Z,-48
2018-06-04T21:31:53.519Z,-46
2018-06-04T21:34:20.454Z,-46
2018-06-04T21:36:47.378Z,-47
2018-06-04T21:39:14.398Z,-46
2018-06-04T21:41:41.338Z,-46
2018-06-04T21:44:08.280Z,-47
2018-06-04T21:46:35.234Z,-46
2018-06-04T21:49:02.245Z,-46
2018-06-04T21:51:29.105Z,-46
2018-06-04T21:53:56.029Z,-48
2018-06-04T21:56:23.002Z,-46
2018-06-04T21:58:49.937Z,-46
2018-06-04T22:01:16.883Z,-47
2018-06-04T22:03:43.864Z,-46
2018-06-04T22:06:10.891Z,-47
2018-06-04T22:08:37.863Z,-47
2018-06-04T22:11:04.968Z,-46
2018-06-04T22:13:31.871Z,-46
2018-06-04T22:15:58.803Z,-46
2018-06-04T22:18:25.787Z,-46
2018-06-04T22:20:52.723Z,-46
2018-06-04T22:23:19.690Z,-46
2018-06-04T22:25:46.602Z,-47
2018-06-04T22:28:13.535Z,-47
2018-06-04T22:30:40.463Z,-46
2018-06-04T22:33:07.400Z,-47
2018-06-04T22:35:34.318Z,-46
2018-06-04T22:38:01.238Z,-46
2018-06-04T22:40:28.185Z,-46
2018-06-04T22:42:55.123Z,-46
2018-06-04T22:45:22.050Z,-46
2018-06-04T22:47:48.962Z,-46
2018-06-04T22:50:15.870Z,-46
2018-06-04T22:52:42.835Z,-46
2018-06-04T22:55:09.754Z,-46
2018-06-04T22:57:36.732Z,-47
2018-06-04T23:00:03.688Z,-46
2018-06-04T23:02:30.648Z,-48
2018-06-04T23:04:57.554Z,-46
2018-06-04T23:07:24.459Z,-46
2018-06-04T23:09:51.379Z,-46
2018-06-04T23:12:18.334Z,-46
2018-06-04T23:14:45.272Z,-46
2018-06-04T23:17:12.208Z,-46
2018-06-04T23:19:39.190Z,-46
2018-06-04T23:22:06.511Z,-46
2018-06-04T23:24:33.458Z,-46
2018-06-04T23:27:01.302Z,-46
2018-06-04T23:29:28.223Z,-46
2018-06-04T23:31:55.322Z,-46
2018-06-04T23:34:22.278Z,-46
2018-06-04T23:36:49.211Z,-46
2018-06-04T23:39:16.128Z,-46
2018-06-04T23:41:43.056Z,-46
2018-06-04T23:44:09.975Z,-46
2018-06-04T23:46:36.904Z,-46
2018-06-04T23:49:03.863Z,-46
2018-06-04T23:51:30.807Z,-46
2018-06-04T23:53:57.726Z,-46
2018-06-04T23:56:24.768Z,-46
2018-06-04T23:58:51.687Z,-47
